Terminal Aerodrome Forecast
Issued by NWS Nashville, TN

Home | Current Version | Previous Version | Text Only | Print | Product List | Glossary On
Versions: 1 2 3 4 5 6 7 8 9 10 11 12 13 14 15 16 17 18 19 20 21 22 23 24 25 26 27 28 29
049
FTUS44 KOHX 010405 AAB
TAFBNA
TAF AMD
KBNA 010405Z 0104/0124 18015KT P6SM BKN025 BKN030 OVC110
      TEMPO 0104/0107 5SM -SHRA
     FM010700 21013G22KT P6SM OVC050
     FM011000 20009KT P6SM SCT160
     FM011300 21013G22KT P6SM FEW250=

USA.gov is the U.S. government's official web portal to all federal, state and local government web resources and services.